createdAt,value
2018-04-19T00:01:05.164Z,22.23
2018-04-19T00:03:32.774Z,22.83
2018-04-19T00:06:00.418Z,21.87
2018-04-19T00:08:28.839Z,22.07
2018-04-19T00:10:56.529Z,21.70
2018-04-19T00:13:24.169Z,21.43
2018-04-19T00:15:51.798Z,21.50
2018-04-19T00:18:20.199Z,21.37
2018-04-19T00:20:47.845Z,22.30
2018-04-19T00:23:16.200Z,20.10
2018-04-19T00:25:43.819Z,20.97
2018-04-19T00:28:11.435Z,21.83
2018-04-19T00:30:39.053Z,20.73
2018-04-19T00:33:06.681Z,21.30
2018-04-19T00:35:34.288Z,21.13
2018-04-19T00:38:01.930Z,20.37
2018-04-19T00:40:30.274Z,20.60
2018-04-19T00:42:57.866Z,19.17
2018-04-19T00:45:26.257Z,19.93
2018-04-19T00:47:53.943Z,19.90
2018-04-19T00:50:21.607Z,19.57
2018-04-19T00:53:02.599Z,20.20
2018-04-19T00:55:30.247Z,20.67
2018-04-19T00:57:57.931Z,20.37
2018-04-19T01:00:25.664Z,19.07
2018-04-19T01:02:54.098Z,19.20
2018-04-19T01:05:22.448Z,18.30
2018-04-19T01:07:50.822Z,19.93
2018-04-19T01:10:18.524Z,20.03
2018-04-19T01:12:46.146Z,18.90
2018-04-19T01:15:14.572Z,18.40
2018-04-19T01:17:42.232Z,16.97
2018-04-19T01:20:09.875Z,18.60
2018-04-19T01:22:37.468Z,17.37
2018-04-19T01:25:05.103Z,17.03
2018-04-19T01:27:33.465Z,17.27
2018-04-19T01:30:01.063Z,17.10
2018-04-19T01:32:28.769Z,17.87
2018-04-19T01:34:57.139Z,17.37
2018-04-19T01:37:24.772Z,18.80
2018-04-19T01:39:53.151Z,18.03
2018-04-19T01:42:21.552Z,16.60
2018-04-19T01:44:49.169Z,15.87
2018-04-19T01:47:16.816Z,15.67
2018-04-19T01:49:44.471Z,15.60
2018-04-19T01:52:12.077Z,16.10
2018-04-19T01:54:39.769Z,16.93
2018-04-19T01:57:08.142Z,16.33
2018-04-19T01:59:35.782Z,16.80
2018-04-19T02:02:03.384Z,15.70
2018-04-19T02:04:31.744Z,14.33
2018-04-19T02:06:59.395Z,14.63
2018-04-19T02:09:26.988Z,13.33
2018-04-19T02:11:55.365Z,13.10
2018-04-19T02:14:22.967Z,12.77
2018-04-19T02:16:50.573Z,13.17
2018-04-19T02:19:18.257Z,12.97
2018-04-19T02:21:45.899Z,12.93
2018-04-19T02:24:13.542Z,13.13
2018-04-19T02:26:41.133Z,13.20
2018-04-19T02:29:08.765Z,12.77
2018-04-19T02:31:36.364Z,13.03
2018-04-19T02:34:04.012Z,14.40
2018-04-19T02:36:31.613Z,14.30
2018-04-19T02:38:59.244Z,15.43
2018-04-19T02:41:26.862Z,14.60
2018-04-19T02:43:55.225Z,14.37
2018-04-19T02:46:22.840Z,14.47
2018-04-19T02:48:50.401Z,14.30
2018-04-19T02:51:18.015Z,14.10
2018-04-19T02:53:45.625Z,14.13
2018-04-19T02:56:13.261Z,13.73
2018-04-19T02:58:41.633Z,14.67
2018-04-19T03:01:10.017Z,12.93
2018-04-19T03:03:37.665Z,13.77
2018-04-19T03:06:05.310Z,13.27
2018-04-19T03:08:33.495Z,13.60
2018-04-19T03:11:01.171Z,13.33
2018-04-19T03:13:28.819Z,13.47
2018-04-19T03:15:56.444Z,13.83
2018-04-19T03:18:24.021Z,14.53
2018-04-19T03:20:52.445Z,15.40
2018-04-19T03:23:20.072Z,15.40
2018-04-19T03:25:48.475Z,14.53
2018-04-19T03:28:16.098Z,13.63
2018-04-19T03:30:43.720Z,15.23
2018-04-19T03:33:12.122Z,14.93
2018-04-19T03:35:39.762Z,15.20
2018-04-19T03:38:07.426Z,14.87
2018-04-19T03:40:35.089Z,14.40
2018-04-19T03:43:02.710Z,15.10
2018-04-19T03:45:31.200Z,14.03
2018-04-19T03:47:59.629Z,14.77
2018-04-19T03:50:27.268Z,14.40
2018-04-19T03:52:54.880Z,14.77
2018-04-19T03:55:23.365Z,14.73
2018-04-19T03:57:50.985Z,14.53
2018-04-19T04:00:19.331Z,13.63
2018-04-19T04:02:46.973Z,13.60
2018-04-19T04:05:14.606Z,13.77
2018-04-19T04:07:42.950Z,14.07
2018-04-19T04:10:10.594Z,13.83
2018-04-19T04:12:38.207Z,13.57
2018-04-19T04:15:06.610Z,14.03
2018-04-19T04:17:46.047Z,13.37
2018-04-19T04:20:26.232Z,14.57
2018-04-19T04:23:05.743Z,13.37
2018-04-19T04:25:33.323Z,14.10
2018-04-19T04:28:00.915Z,13.43
2018-04-19T04:30:28.510Z,14.07
2018-04-19T04:32:56.861Z,13.43
2018-04-19T04:35:24.483Z,14.40
2018-04-19T04:37:52.113Z,14.03
2018-04-19T04:40:19.775Z,13.57
2018-04-19T04:42:47.402Z,13.73
2018-04-19T04:45:15.036Z,13.57
2018-04-19T04:47:42.683Z,13.67
2018-04-19T04:50:10.264Z,13.67
2018-04-19T04:52:38.621Z,13.03
2018-04-19T04:55:07.224Z,13.70
2018-04-19T04:57:34.807Z,13.80
2018-04-19T05:00:02.489Z,13.67
2018-04-19T05:02:30.846Z,12.77
2018-04-19T05:04:59.196Z,13.37
2018-04-19T05:07:26.868Z,13.83
2018-04-19T05:09:54.536Z,13.13
2018-04-19T05:12:22.228Z,13.30
2018-04-19T05:14:49.851Z,13.63
2018-04-19T05:17:17.480Z,13.20
2018-04-19T05:19:45.085Z,13.77
2018-04-19T05:22:12.713Z,13.47
2018-04-19T05:24:40.341Z,12.33
2018-04-19T05:27:08.004Z,13.57
2018-04-19T05:29:35.627Z,13.07
2018-04-19T05:32:03.276Z,13.73
2018-04-19T05:34:30.898Z,12.93
2018-04-19T05:36:58.516Z,13.37
2018-04-19T05:39:26.272Z,12.77
2018-04-19T05:41:53.916Z,12.67
2018-04-19T05:44:22.422Z,13.13
2018-04-19T05:46:50.075Z,12.53
2018-04-19T05:49:17.711Z,10.60
2018-04-19T05:51:45.351Z,10.30
2018-04-19T05:54:12.939Z,8.43
2018-04-19T05:56:40.564Z,7.97
2018-04-19T05:59:08.281Z,7.70
2018-04-19T06:01:35.913Z,7.10
2018-04-19T06:04:03.612Z,6.93
2018-04-19T06:06:31.570Z,7.63
2018-04-19T06:08:59.209Z,7.00
2018-04-19T06:11:26.885Z,6.53
2018-04-19T06:13:54.790Z,6.23
2018-04-19T06:16:22.467Z,6.50
2018-04-19T06:18:50.123Z,6.40
2018-04-19T06:21:17.807Z,6.07
2018-04-19T06:23:46.216Z,5.57
2018-04-19T06:26:14.727Z,5.93
2018-04-19T06:28:42.376Z,5.70
2018-04-19T06:31:10.070Z,5.00
2018-04-19T06:33:38.511Z,5.17
2018-04-19T06:36:06.976Z,5.40
2018-04-19T06:38:34.699Z,5.63
2018-04-19T06:41:02.322Z,5.73
2018-04-19T06:43:30.829Z,5.77
2018-04-19T06:45:59.276Z,5.87
2018-04-19T06:48:27.902Z,6.47
2018-04-19T06:50:55.628Z,6.37
2018-04-19T06:53:23.927Z,6.40
2018-04-19T06:55:52.435Z,5.30
2018-04-19T06:58:21.733Z,5.60
2018-04-19T07:00:50.370Z,6.00
2018-04-19T07:03:18.744Z,5.87
2018-04-19T07:05:47.156Z,5.50
2018-04-19T07:08:15.758Z,6.27
2018-04-19T07:10:43.759Z,7.07
2018-04-19T07:13:15.698Z,6.00
2018-04-19T07:15:44.471Z,5.53
2018-04-19T07:18:12.598Z,5.73
2018-04-19T07:20:40.295Z,6.93
2018-04-19T07:23:08.155Z,6.47
2018-04-19T07:25:36.704Z,5.90
2018-04-19T07:28:04.557Z,5.93
2018-04-19T07:30:32.301Z,5.53
2018-04-19T07:33:00.891Z,6.27
2018-04-19T07:35:29.507Z,6.17
2018-04-19T07:37:58.202Z,6.10
2018-04-19T07:40:26.429Z,5.57
2018-04-19T07:42:55.061Z,6.30
2018-04-19T07:45:23.577Z,6.27
2018-04-19T07:47:51.433Z,6.97
2018-04-19T07:50:19.258Z,7.03
2018-04-19T07:52:46.907Z,7.43
2018-04-19T07:55:14.785Z,7.93
2018-04-19T07:57:42.680Z,8.10
2018-04-19T08:00:12.593Z,8.77
2018-04-19T08:02:40.346Z,7.97
2018-04-19T08:05:08.936Z,8.53
2018-04-19T08:07:37.548Z,8.20
2018-04-19T08:10:05.371Z,8.70
2018-04-19T08:12:34.099Z,9.43
2018-04-19T08:15:01.923Z,9.50
2018-04-19T08:17:29.647Z,9.10
2018-04-19T08:19:57.461Z,8.93
2018-04-19T08:22:26.067Z,9.30
2018-04-19T08:24:54.195Z,8.83
2018-04-19T08:27:21.941Z,9.87
2018-04-19T08:29:49.912Z,11.00
2018-04-19T08:32:18.781Z,10.37
2018-04-19T08:34:48.342Z,10.47
2018-04-19T08:37:16.385Z,10.57
2018-04-19T08:39:44.323Z,10.67
2018-04-19T08:42:13.927Z,10.20
2018-04-19T08:44:44.692Z,10.83
2018-04-19T08:47:13.448Z,10.97
2018-04-19T08:49:41.204Z,11.47
2018-04-19T08:52:08.988Z,11.37
2018-04-19T08:54:38.460Z,11.60
2018-04-19T08:57:07.463Z,11.23
2018-04-19T08:59:35.305Z,11.13
2018-04-19T09:02:04.190Z,10.47
2018-04-19T09:04:31.949Z,10.93
2018-04-19T09:07:00.429Z,9.93
2018-04-19T09:09:28.227Z,10.40
2018-04-19T09:11:59.666Z,9.80
2018-04-19T09:14:27.507Z,10.70
2018-04-19T09:16:55.342Z,10.20
2018-04-19T09:19:23.008Z,10.40
2018-04-19T09:21:51.121Z,10.80
2018-04-19T09:24:18.845Z,10.30
2018-04-19T09:26:47.466Z,9.93
2018-04-19T09:29:16.042Z,9.73
2018-04-19T09:31:43.831Z,9.47
2018-04-19T09:34:11.596Z,9.87
2018-04-19T09:36:39.998Z,9.40
2018-04-19T09:39:07.739Z,10.00
2018-04-19T09:41:35.461Z,9.67
2018-04-19T09:44:03.913Z,9.80
2018-04-19T09:46:33.450Z,10.17
2018-04-19T09:49:01.453Z,9.70
2018-04-19T09:51:30.108Z,9.93
2018-04-19T09:53:59.734Z,9.33
2018-04-19T09:56:28.592Z,10.00
2018-04-19T09:59:08.140Z,9.50
2018-04-19T10:01:41.706Z,9.23
2018-04-19T10:04:10.594Z,9.70
2018-04-19T10:06:39.178Z,8.83
2018-04-19T10:09:09.938Z,9.33
2018-04-19T10:11:38.943Z,8.10
2018-04-19T10:14:07.378Z,7.57
2018-04-19T10:16:36.538Z,7.87
2018-04-19T10:19:04.446Z,7.30
2018-04-19T10:21:34.295Z,7.33
2018-04-19T10:24:02.481Z,6.63
2018-04-19T10:26:31.459Z,5.30
2018-04-19T10:29:05.859Z,4.37
2018-04-19T10:31:36.870Z,4.30
2018-04-19T10:34:06.301Z,4.40
2018-04-19T10:36:35.055Z,4.50
2018-04-19T10:39:03.655Z,4.30
2018-04-19T10:41:35.523Z,4.33
2018-04-19T10:44:05.762Z,5.07
2018-04-19T10:46:42.141Z,5.13
2018-04-19T10:49:11.100Z,4.70
2018-04-19T10:51:39.168Z,4.40
2018-04-19T10:54:08.850Z,4.20
2018-04-19T10:56:36.604Z,4.47
2018-04-19T10:59:06.594Z,3.90
2018-04-19T11:01:36.028Z,4.30
2018-04-19T11:04:04.440Z,4.07
2018-04-19T11:06:32.439Z,4.40
2018-04-19T11:09:03.468Z,4.30
2018-04-19T11:11:34.794Z,3.80
2018-04-19T11:14:04.388Z,4.30
2018-04-19T11:16:33.272Z,3.77
2018-04-19T11:19:01.282Z,4.00
2018-04-19T11:21:31.179Z,4.00
2018-04-19T11:24:00.804Z,4.27
2018-04-19T11:26:28.526Z,3.53
2018-04-19T11:28:57.670Z,4.07
2018-04-19T11:31:28.226Z,3.73
2018-04-19T11:33:55.942Z,4.30
2018-04-19T11:36:26.481Z,3.90
2018-04-19T11:38:54.385Z,3.70
2018-04-19T11:41:24.880Z,3.60
2018-04-19T11:43:53.178Z,4.60
2018-04-19T11:46:21.035Z,4.50
2018-04-19T11:48:50.566Z,4.63
2018-04-19T11:51:20.805Z,4.70
2018-04-19T11:53:49.535Z,4.50
2018-04-19T11:56:17.840Z,4.60
2018-04-19T11:58:47.113Z,4.77
2018-04-19T12:01:16.600Z,4.50
2018-04-19T12:03:46.464Z,3.97
2018-04-19T12:06:15.102Z,4.03
2018-04-19T12:08:44.399Z,4.00
2018-04-19T12:11:13.054Z,4.97
2018-04-19T12:13:41.292Z,4.37
2018-04-19T12:16:10.052Z,4.93
2018-04-19T12:18:39.309Z,3.97
2018-04-19T12:21:09.144Z,4.27
2018-04-19T12:23:37.428Z,4.70
2018-04-19T12:26:06.809Z,4.40
2018-04-19T12:28:38.040Z,4.50
2018-04-19T12:31:06.491Z,4.37
2018-04-19T12:33:36.483Z,4.40
2018-04-19T12:36:05.368Z,3.50
2018-04-19T12:38:33.363Z,3.50
2018-04-19T12:41:03.019Z,3.50
2018-04-19T12:43:32.446Z,3.10
2018-04-19T12:46:03.181Z,2.80
2018-04-19T12:48:31.460Z,3.57
2018-04-19T12:50:59.524Z,3.27
2018-04-19T12:53:30.493Z,3.20
2018-04-19T12:55:59.457Z,4.23
2018-04-19T12:58:28.323Z,3.77
2018-04-19T13:00:58.510Z,4.40
2018-04-19T13:03:29.812Z,3.93
2018-04-19T13:05:59.497Z,3.80
2018-04-19T13:08:28.294Z,4.03
2018-04-19T13:10:57.462Z,4.30
2018-04-19T13:13:26.365Z,4.27
2018-04-19T13:15:59.090Z,4.23
2018-04-19T13:18:26.948Z,4.13
2018-04-19T13:20:59.942Z,4.23
2018-04-19T13:23:28.734Z,3.40
2018-04-19T13:26:00.426Z,3.43
2018-04-19T13:31:10.975Z,4.93
2018-04-19T13:33:39.935Z,4.57
2018-04-19T13:36:11.325Z,3.77
2018-04-19T13:38:39.877Z,4.03
2018-04-19T13:41:12.134Z,4.27
2018-04-19T13:43:40.028Z,3.90
2018-04-19T13:46:13.241Z,3.93
2018-04-19T13:48:42.076Z,4.07
2018-04-19T13:51:12.874Z,4.10
2018-04-19T13:53:44.235Z,4.40
2018-04-19T13:56:13.296Z,4.20
2018-04-19T13:58:44.532Z,4.27
2018-04-19T14:01:14.165Z,3.87
2018-04-19T14:03:48.575Z,3.43
2018-04-19T14:06:19.289Z,3.87
2018-04-19T14:08:49.677Z,3.93
2018-04-19T14:11:17.789Z,3.47
2018-04-19T14:13:46.049Z,3.90
2018-04-19T14:16:17.978Z,3.50
2018-04-19T14:18:47.064Z,3.63
2018-04-19T14:21:15.997Z,3.10
2018-04-19T14:23:43.985Z,3.20
2018-04-19T14:26:14.134Z,2.90
2018-04-19T14:28:42.051Z,2.67
2018-04-19T14:31:12.715Z,2.90
2018-04-19T14:33:42.492Z,3.20
2018-04-19T14:36:10.595Z,3.37
2018-04-19T14:38:39.865Z,3.10
2018-04-19T14:41:14.729Z,3.23
2018-04-19T14:43:42.607Z,2.67
2018-04-19T14:46:19.987Z,2.97
2018-04-19T14:48:48.767Z,2.60
2018-04-19T14:51:19.564Z,3.00
2018-04-19T14:53:50.155Z,2.67
2018-04-19T14:56:18.323Z,2.50
2018-04-19T14:58:47.499Z,3.03
2018-04-19T15:01:16.739Z,2.70
2018-04-19T15:03:45.896Z,2.70
2018-04-19T15:06:17.879Z,3.00
2018-04-19T15:08:45.601Z,2.70
2018-04-19T15:11:18.064Z,2.50
2018-04-19T15:13:45.901Z,3.07
2018-04-19T15:19:04.206Z,2.87
2018-04-19T15:21:35.014Z,3.10
